Webcam Meteoipassi more information Webcam Meteoipassi


Pisa torre orologio more information Pisa torre orologio


altri nostri siti meteo:

Pomeziameteo 1Sito sul meteo

Pomeziameteo DashboardSito sul meteo

Caput FrigorisSito sul meteo

BarcellonameteoSito sul meteo

MeteoipassiSito sul meteo

ViterbometeoSito sul meteo

MeteotortoretoSito sul meteo

TortoretometeolidoSito sul meteo

MeteoGonzagaSito sul meteo



Vento Inizio validita dal: 10-12-2018 10:00 Fino: 20:59 Allerta per: Vento Livello: Giallo info button

Report METAR

   
LIRQ - Firenze
Dati ricevuti: Dec 10 2018 10:20 pm
Sereno  
Sereno  
   Vento: Variabile 3.7 km/h
Vento: Variabile 3.7 km/h
Temperatura: 0°C
P.to Rugiada: -1°C
Umidita: 93%
Barometro: 1017 hPa
Visibilita: oltre 10 km
dettagli cloud: Sereno
LIRQ 102120Z VRB02KT CAVOK 00/M01 Q1017
LIRP - Lucca
Dati ricevuti: Dec 10 2018 10:15 pm
Sereno  
Sereno  
   Vento: NNW 9.3 km/h
Vento: NNW 9.3 km/h
Temperatura: 9°C
Temperatura Vento: 8°C
P.to Rugiada: -5°C
Umidita: 37%
Barometro: 1017 hPa
Visibilita: oltre 10 km
dettagli cloud: Sereno
LIRP 102115Z 34005KT CAVOK 09/M05 Q1017 NOSIG
LIRP - Livorno
Dati ricevuti: Dec 10 2018 10:15 pm
Sereno  
Sereno  
   Vento: NNW 9.3 km/h
Vento: NNW 9.3 km/h
Temperatura: 9°C
Temperatura Vento: 8°C
P.to Rugiada: -5°C
Umidita: 37%
Barometro: 1017 hPa
Visibilita: oltre 10 km
dettagli cloud: Sereno
LIRP 102115Z 34005KT CAVOK 09/M05 Q1017 NOSIG
LIMP - Parma
Dati ricevuti: Dec 10 2018 8:50 pm
DATI Obsoleti
Sereno  
Sereno  
   Vento: West 16.7 km/h
Vento: West 16.7 km/h
Temperatura: 8°C
Temperatura Vento: 5°C
P.to Rugiada: -4°C
Umidita: 43%
Barometro: 1018 hPa
Visibilita: oltre 10 km
dettagli cloud: Sereno
LIMP 101950Z 27009KT CAVOK 08/M04 Q1018
LIRF - Roma
Dati ricevuti: Dec 10 2018 10:20 pm
Sereno  
Sereno  
   Vento: Variabile 5.6 km/h
Vento: Variabile 5.6 km/h
Temperatura: 6°C
Temperatura Vento: 5°C
P.to Rugiada: -1°C
Umidita: 61%
Barometro: 1016 hPa
Visibilita: oltre 10 km
dettagli cloud: Sereno
LIRF 102120Z VRB03KT CAVOK 06/M01 Q1016 NOSIG
 

Script sviluppato da  Saratoga-weather.org Adattato per il modello da  Weerstation Leuven

Potete trovare le nostre info meteo anche a:

European Weather Network

Weather Underground

AWEKAS

HAMweather, WeatherForYou, PWS Weather

Strumentazione usata:

Stazione meteo
Oregon Scientific WMR88

Programma gestore dati meteo
WVIEW

Server per i dati meteo
WDS-5

Provider
Anemos WDS-5

Oregon Scientific WMR88

WVIEW

WDS-5

Anemos WDS-5